createdAt,value
2019-04-11T00:01:14.465Z,26.43
2019-04-11T00:05:16.773Z,24.77
2019-04-11T00:09:18.761Z,24.73
2019-04-11T00:13:24.392Z,28.60
2019-04-11T00:17:22.719Z,27.27
2019-04-11T00:21:24.594Z,24.07
2019-04-11T00:25:25.592Z,23.83
2019-04-11T00:29:26.489Z,24.47
2019-04-11T00:33:27.408Z,23.10
2019-04-11T00:37:29.176Z,24.53
2019-04-11T00:41:30.951Z,26.60
2019-04-11T00:45:33.917Z,25.77
2019-04-11T00:49:35.071Z,26.53
2019-04-11T00:53:36.184Z,25.27
2019-04-11T00:57:37.173Z,25.47
2019-04-11T01:01:38.208Z,25.57
2019-04-11T01:05:39.495Z,27.33
2019-04-11T01:09:40.601Z,25.83
2019-04-11T01:13:50.368Z,25.60
2019-04-11T01:17:45.449Z,23.47
2019-04-11T01:21:46.714Z,22.70
2019-04-11T01:25:48.546Z,22.67
2019-04-11T01:29:49.707Z,23.60
2019-04-11T01:33:51.723Z,24.17
2019-04-11T01:37:52.784Z,23.53
2019-04-11T01:41:55.087Z,23.00
2019-04-11T01:45:56.217Z,20.27
2019-04-11T01:49:57.165Z,21.70
2019-04-11T01:53:59.362Z,22.17
2019-04-11T01:58:00.477Z,21.03
2019-04-11T02:02:13.403Z,21.00
2019-04-11T02:06:14.541Z,21.47
2019-04-11T02:10:15.438Z,22.63
2019-04-11T02:14:18.457Z,22.97
2019-04-11T02:18:19.391Z,21.33
2019-04-11T02:22:22.436Z,20.80
2019-04-11T02:26:25.316Z,21.43
2019-04-11T02:30:27.920Z,20.40
2019-04-11T02:34:29.694Z,20.67
2019-04-11T02:38:32.439Z,21.17
2019-04-11T02:42:35.049Z,19.87
2019-04-11T02:46:48.248Z,18.40
2019-04-11T02:50:41.490Z,19.97
2019-04-11T02:54:43.152Z,21.10
2019-04-11T02:58:46.341Z,20.23
2019-04-11T03:02:48.079Z,19.70
2019-04-11T03:06:51.981Z,22.23
2019-04-11T03:10:53.760Z,18.83
2019-04-11T03:15:12.682Z,20.70
2019-04-11T03:19:17.897Z,18.80
2019-04-11T03:23:05.682Z,19.87
2019-04-11T03:27:07.200Z,18.40
2019-04-11T03:31:41.737Z,20.43
2019-04-11T03:39:32.714Z,21.37
2019-04-11T03:43:30.165Z,18.37
2019-04-11T03:47:34.851Z,20.60
2019-04-11T03:51:25.597Z,18.47
2019-04-11T03:55:28.391Z,18.37
2019-04-11T03:59:31.456Z,18.03
2019-04-11T04:03:34.288Z,16.47
2019-04-11T04:07:36.096Z,19.33
2019-04-11T04:11:40.875Z,18.70
2019-04-11T04:15:59.901Z,17.23
2019-04-11T04:20:08.952Z,18.87
2019-04-11T04:24:34.420Z,18.73
2019-04-11T04:28:33.871Z,17.20
2019-04-11T04:32:36.435Z,19.37
2019-04-11T04:36:37.976Z,16.53
2019-04-11T04:40:51.061Z,17.57
2019-04-11T04:44:44.607Z,18.77
2019-04-11T04:48:47.405Z,16.90
2019-04-11T04:52:49.165Z,17.90
2019-04-11T04:56:50.368Z,18.27
2019-04-11T05:00:53.819Z,17.10
2019-04-11T05:04:54.489Z,17.37
2019-04-11T05:08:56.043Z,18.07
2019-04-11T05:12:57.200Z,17.27
2019-04-11T05:16:58.170Z,17.07
2019-04-11T05:20:59.191Z,19.13
2019-04-11T05:25:01.893Z,17.07
2019-04-11T05:29:02.933Z,16.00
2019-04-11T05:33:04.067Z,16.53
2019-04-11T05:37:04.926Z,15.93
2019-04-11T05:41:09.484Z,17.07
2019-04-11T05:45:15.900Z,15.60
2019-04-11T05:49:33.109Z,16.73
2019-04-11T05:53:33.630Z,16.33
2019-04-11T05:57:38.082Z,15.83
2019-04-11T06:01:39.636Z,16.87
2019-04-11T06:05:44.415Z,16.63
2019-04-11T06:09:48.157Z,15.93
2019-04-11T06:13:51.052Z,16.17
2019-04-11T06:17:51.995Z,13.43
2019-04-11T06:21:55.874Z,14.10
2019-04-11T06:26:00.220Z,15.97
2019-04-11T06:30:15.825Z,14.93
2019-04-11T06:34:17.560Z,15.80
2019-04-11T06:38:37.036Z,16.17
2019-04-11T06:42:39.831Z,14.90
2019-04-11T06:46:54.524Z,15.90
2019-04-11T06:50:53.442Z,16.33
2019-04-11T06:54:59.232Z,15.60
2019-04-11T06:59:02.194Z,17.67
2019-04-11T07:03:05.625Z,15.70
2019-04-11T07:07:13.012Z,14.83
2019-04-11T07:11:32.663Z,14.50
2019-04-11T07:15:35.609Z,14.20
2019-04-11T07:19:41.621Z,14.70
2019-04-11T07:24:01.284Z,12.97
2019-04-11T07:28:04.184Z,12.23
2019-04-11T07:32:11.546Z,14.43
2019-04-11T07:36:31.673Z,12.37
2019-04-11T07:40:39.190Z,12.33
2019-04-11T07:44:51.754Z,13.47
2019-04-11T07:48:52.697Z,11.57
2019-04-11T07:52:56.128Z,10.27
2019-04-11T07:57:11.343Z,11.43
2019-04-11T08:01:14.755Z,10.50
2019-04-11T08:05:36.672Z,11.10
2019-04-11T08:09:42.160Z,11.13
2019-04-11T08:13:56.981Z,12.20
2019-04-11T08:17:59.857Z,10.20
2019-04-11T08:22:08.999Z,10.03
2019-04-11T08:26:17.931Z,10.77
2019-04-11T08:30:21.089Z,12.10
2019-04-11T08:34:22.061Z,11.30
2019-04-11T08:38:32.231Z,12.80
2019-04-11T08:42:48.682Z,11.77
2019-04-11T08:46:51.594Z,11.20
2019-04-11T08:50:54.653Z,11.27
2019-04-11T08:54:58.723Z,12.10
2019-04-11T08:59:33.580Z,11.17
2019-04-11T09:03:42.369Z,11.53
2019-04-11T09:07:52.026Z,10.53
2019-04-11T09:11:56.165Z,10.83
2019-04-11T09:16:15.779Z,9.83
2019-04-11T09:20:35.928Z,11.63
2019-04-11T09:24:42.991Z,10.73
2019-04-11T09:28:44.473Z,10.63
2019-04-11T09:32:47.282Z,11.40
2019-04-11T09:36:51.260Z,11.20
2019-04-11T09:40:54.329Z,10.53
2019-04-11T09:45:06.260Z,9.97
2019-04-11T09:49:18.491Z,10.43
2019-04-11T09:53:20.668Z,10.13
2019-04-11T09:57:24.729Z,8.70
2019-04-11T10:01:30.920Z,9.60
2019-04-11T10:05:40.681Z,8.17
2019-04-11T10:09:54.176Z,9.23
2019-04-11T10:14:01.692Z,8.90
2019-04-11T10:18:27.790Z,10.77
2019-04-11T10:22:42.169Z,9.27
2019-04-11T10:27:00.532Z,9.67
2019-04-11T10:31:04.237Z,9.27
2019-04-11T10:35:08.181Z,9.40
2019-04-11T10:39:21.485Z,9.33
2019-04-11T10:43:22.533Z,9.50
2019-04-11T10:47:26.946Z,9.57
2019-04-11T10:51:42.346Z,10.40
2019-04-11T10:55:49.524Z,9.57
2019-04-11T10:59:51.999Z,7.93
2019-04-11T11:03:55.560Z,9.30
2019-04-11T11:07:59.271Z,9.93
2019-04-11T11:12:03.005Z,7.50
2019-04-11T11:16:04.371Z,8.23
2019-04-11T11:20:27.421Z,8.97
2019-04-11T11:24:42.126Z,8.97
2019-04-11T11:28:48.769Z,8.13
2019-04-11T11:32:49.815Z,8.93
2019-04-11T11:36:54.705Z,8.57
2019-04-11T11:41:00.452Z,8.00
2019-04-11T11:45:21.638Z,8.70
2019-04-11T11:49:39.777Z,9.70
2019-04-11T11:53:29.902Z,10.67
2019-04-11T11:57:35.033Z,9.37
2019-04-11T12:01:43.227Z,9.07
2019-04-11T12:05:48.066Z,9.63
2019-04-11T12:10:04.478Z,9.20
2019-04-11T12:14:07.709Z,10.17
2019-04-11T12:18:15.814Z,9.53
2019-04-11T12:22:17.997Z,8.87
2019-04-11T12:26:20.297Z,8.93
2019-04-11T12:30:26.632Z,10.43
2019-04-11T12:34:30.819Z,8.97
2019-04-11T12:38:48.728Z,10.43
2019-04-11T12:42:49.608Z,9.37
2019-04-11T12:46:56.855Z,8.63
2019-04-11T12:50:59.665Z,8.07
2019-04-11T12:55:08.197Z,10.43
2019-04-11T12:59:09.185Z,9.40
2019-04-11T13:03:28.676Z,9.47
2019-04-11T13:07:37.982Z,9.80
2019-04-11T13:11:53.005Z,10.97
2019-04-11T13:15:56.307Z,10.60
2019-04-11T13:20:16.072Z,10.67
2019-04-11T13:24:31.020Z,8.83
2019-04-11T13:28:32.933Z,9.97
2019-04-11T13:32:42.573Z,10.10
2019-04-11T13:36:57.575Z,9.83
2019-04-11T13:41:09.574Z,10.73
2019-04-11T13:45:12.193Z,11.20
2019-04-11T13:49:32.418Z,10.87
2019-04-11T13:53:52.289Z,10.30
2019-04-11T13:57:55.458Z,9.90
2019-04-11T14:01:58.248Z,10.27
2019-04-11T14:06:03.966Z,11.27
2019-04-11T14:10:08.892Z,10.27
2019-04-11T14:14:14.988Z,11.80
2019-04-11T14:18:26.986Z,10.63
2019-04-11T14:22:29.866Z,10.80
2019-04-11T14:26:32.632Z,11.07
2019-04-11T14:30:52.568Z,9.90
2019-04-11T14:34:55.621Z,10.60
2019-04-11T14:38:58.438Z,10.73
2019-04-11T14:43:18.044Z,10.60
2019-04-11T14:47:39.805Z,9.90
2019-04-11T14:51:43.907Z,11.10
2019-04-11T14:55:48.996Z,10.70
2019-04-11T14:59:54.136Z,10.37
2019-04-11T15:04:14.081Z,11.43
2019-04-11T15:08:29.042Z,9.73
2019-04-11T15:12:37.182Z,12.53
2019-04-11T15:16:57.052Z,10.17
2019-04-11T15:21:06.611Z,9.50
2019-04-11T15:25:24.170Z,11.33
2019-04-11T15:29:27.010Z,10.23
2019-04-11T15:33:30.047Z,10.67
2019-04-11T15:37:49.667Z,10.67
2019-04-11T15:42:01.441Z,9.77
2019-04-11T15:45:57.166Z,10.13
2019-04-11T15:50:17.046Z,10.10
2019-04-11T15:54:37.192Z,10.07
2019-04-11T15:58:42.558Z,10.23
2019-04-11T16:02:45.507Z,9.17
2019-04-11T16:07:08.130Z,11.03
2019-04-11T16:11:12.426Z,10.03
2019-04-11T16:15:18.822Z,9.03
2019-04-11T16:19:38.491Z,9.03
2019-04-11T16:23:57.926Z,9.50
2019-04-11T16:28:12.836Z,10.17
2019-04-11T16:32:14.851Z,10.30
2019-04-11T16:36:26.998Z,9.30
2019-04-11T16:40:45.225Z,9.63
2019-04-11T16:44:55.276Z,9.07
2019-04-11T16:48:56.551Z,10.57
2019-04-11T16:52:57.499Z,9.40
2019-04-11T16:56:58.601Z,9.60
2019-04-11T17:00:59.770Z,9.70
2019-04-11T17:05:02.865Z,10.27
2019-04-11T17:09:07.478Z,10.67
2019-04-11T17:13:08.515Z,8.10
2019-04-11T17:17:14.818Z,10.47
2019-04-11T17:21:14.570Z,8.53
2019-04-11T17:25:17.584Z,10.20
2019-04-11T17:29:20.261Z,8.73
2019-04-11T17:33:21.506Z,9.00
2019-04-11T17:37:22.522Z,8.90
2019-04-11T17:41:23.356Z,8.53
2019-04-11T17:45:24.473Z,9.07
2019-04-11T17:49:25.441Z,8.63
2019-04-11T17:53:26.532Z,8.87
2019-04-11T17:57:27.747Z,8.87
2019-04-11T18:01:28.701Z,8.87
2019-04-11T18:05:29.706Z,14.73
2019-04-11T18:09:30.695Z,9.90
2019-04-11T18:13:35.971Z,8.57
2019-04-11T18:17:37.214Z,8.30
2019-04-11T18:21:38.275Z,9.97
2019-04-11T18:25:39.413Z,9.73
2019-04-11T18:29:40.514Z,9.60
2019-04-11T18:33:43.776Z,10.23
2019-04-11T18:37:45.240Z,9.03
2019-04-11T18:41:46.244Z,10.37
2019-04-11T18:45:47.385Z,10.10
2019-04-11T18:49:48.430Z,9.43
2019-04-11T18:53:49.597Z,10.50
2019-04-11T18:57:50.714Z,10.83
2019-04-11T19:01:51.807Z,11.27
2019-04-11T19:05:52.894Z,9.13
2019-04-11T19:09:54.482Z,9.38
2019-04-11T19:13:55.535Z,10.40
2019-04-11T19:18:06.105Z,10.40
2019-04-11T19:21:59.655Z,12.33
2019-04-11T19:26:00.693Z,14.07
2019-04-11T19:30:03.789Z,8.33
2019-04-11T19:34:08.611Z,9.77
2019-04-11T19:38:12.078Z,12.60
2019-04-11T19:42:18.801Z,12.47
2019-04-11T19:46:19.893Z,19.00
2019-04-11T19:50:19.211Z,9.37
2019-04-11T19:54:20.155Z,9.60
2019-04-11T19:58:25.800Z,8.70
2019-04-11T20:02:26.789Z,8.87
2019-04-11T20:06:27.729Z,8.30
2019-04-11T20:10:30.724Z,9.33
2019-04-11T20:14:34.027Z,7.83
2019-04-11T20:18:36.758Z,8.27
2019-04-11T20:22:39.845Z,8.83
2019-04-11T20:26:40.731Z,8.33
2019-04-11T20:30:42.189Z,7.80
2019-04-11T20:34:43.104Z,9.07
2019-04-11T20:38:44.744Z,9.10
2019-04-11T20:42:46.552Z,9.63
2019-04-11T20:46:49.089Z,9.37
2019-04-11T20:50:51.236Z,8.77
2019-04-11T20:54:52.157Z,8.53
2019-04-11T20:58:53.132Z,8.23
2019-04-11T21:02:58.130Z,9.03
2019-04-11T21:06:56.945Z,8.60
2019-04-11T21:10:58.312Z,9.00
2019-04-11T21:14:59.267Z,9.17
2019-04-11T21:19:00.207Z,8.60
2019-04-11T21:23:01.106Z,9.03
2019-04-11T21:27:02.118Z,9.63
2019-04-11T21:31:03.230Z,9.75
2019-04-11T21:35:05.050Z,8.40
2019-04-11T21:39:06.624Z,9.93
2019-04-11T21:43:07.630Z,8.30
2019-04-11T21:47:08.657Z,9.30
2019-04-11T21:51:11.330Z,8.47
2019-04-11T21:55:15.120Z,9.80
2019-04-11T21:59:19.932Z,8.70
2019-04-11T22:03:18.449Z,10.77
2019-04-11T22:07:19.353Z,11.53
2019-04-11T22:11:20.425Z,12.10
2019-04-11T22:15:21.302Z,11.23
2019-04-11T22:19:22.197Z,10.80
2019-04-11T22:23:23.091Z,10.57
2019-04-11T22:27:25.246Z,15.97
2019-04-11T22:31:26.312Z,10.27
2019-04-11T22:35:29.011Z,8.87
2019-04-11T22:39:31.503Z,9.57
2019-04-11T22:43:32.833Z,10.77
2019-04-11T22:47:35.935Z,12.50
2019-04-11T22:51:42.656Z,11.80
2019-04-11T22:55:41.302Z,12.67
2019-04-11T22:59:45.317Z,17.87
2019-04-11T23:03:54.531Z,15.00
2019-04-11T23:07:55.515Z,10.10
2019-04-11T23:11:56.341Z,9.57
2019-04-11T23:15:57.252Z,10.37
2019-04-11T23:19:58.103Z,10.50
2019-04-11T23:23:58.981Z,10.33
2019-04-11T23:27:59.836Z,8.93
2019-04-11T23:32:00.746Z,9.80
2019-04-11T23:36:01.641Z,9.33
2019-04-11T23:40:04.016Z,12.33
2019-04-11T23:44:04.922Z,13.27
2019-04-11T23:48:05.786Z,13.40
2019-04-11T23:52:06.656Z,11.77
2019-04-11T23:56:07.526Z,9.73
